Time;durP1;ratioP1;P1;durP2;ratioP2;P2;SDS_P1;SDS_P2;PMS_P1;PMS_P2;Temp;Humidity;BMP_temperature;BMP_pressure;BME280_temperature;BME280_humidity;BME280_pressure;Samples;Min_cycle;Max_cycle;Signal;HPM_P1;HPM_P2
2021/08/09 00:01:10;;;;;;;7.03;2.15;;;14.90;99.20;;;;;;3585825;40;20557;-77
2021/08/09 00:03:36;;;;;;;13.68;3.05;;;14.90;99.10;;;;;;3585660;40;20056;-77
2021/08/09 00:06:01;;;;;;;7.82;2.30;;;14.80;99.10;;;;;;3584809;40;20068;-77
2021/08/09 00:08:27;;;;;;;8.93;2.45;;;14.80;99.40;;;;;;3585997;40;20044;-78
2021/08/09 00:10:53;;;;;;;8.43;3.30;;;14.80;99.30;;;;;;3576551;40;20044;-79
2021/08/09 00:13:19;;;;;;;11.63;2.78;;;14.80;99.40;;;;;;3585827;40;20072;-78
2021/08/09 00:15:45;;;;;;;15.02;3.10;;;14.80;99.90;;;;;;3567874;40;20036;-77
2021/08/09 00:18:11;;;;;;;9.15;2.83;;;14.80;99.90;;;;;;3585774;40;20281;-80
2021/08/09 00:20:37;;;;;;;9.55;2.05;;;14.80;99.80;;;;;;3576510;40;20055;-76
2021/08/09 00:23:02;;;;;;;10.15;3.10;;;14.80;99.90;;;;;;3568524;40;20045;-82
2021/08/09 00:25:29;;;;;;;7.40;2.38;;;14.80;99.80;;;;;;3571845;40;20396;-76
2021/08/09 00:27:55;;;;;;;14.38;3.33;;;14.80;99.90;;;;;;3585311;40;20060;-72
2021/08/09 00:30:20;;;;;;;12.70;2.63;;;14.80;99.90;;;;;;3586593;40;20059;-74
2021/08/09 00:32:46;;;;;;;6.68;2.05;;;14.80;99.90;;;;;;3587238;40;20327;-80
2021/08/09 00:35:12;;;;;;;8.50;2.92;;;14.80;99.90;;;;;;3587126;40;20076;-77
2021/08/09 00:37:38;;;;;;;10.65;2.60;;;14.80;99.90;;;;;;3587014;40;20032;-79
2021/08/09 00:40:05;;;;;;;12.48;2.53;;;14.80;99.90;;;;;;3578165;40;20048;-78
2021/08/09 00:42:31;;;;;;;11.32;3.05;;;14.80;99.90;;;;;;3586992;40;20040;-79
2021/08/09 00:44:57;;;;;;;11.93;2.30;;;14.80;99.90;;;;;;3578093;40;20040;-80
2021/08/09 00:47:23;;;;;;;13.45;3.10;;;14.80;99.90;;;;;;3587131;40;20074;-80
2021/08/09 00:49:49;;;;;;;8.82;2.75;;;14.80;99.90;;;;;;3587471;40;20741;-81
2021/08/09 00:52:15;;;;;;;9.88;2.97;;;14.70;99.90;;;;;;3587552;40;20048;-81
2021/08/09 00:54:41;;;;;;;10.13;2.75;;;14.70;99.90;;;;;;3587054;40;20043;-81
2021/08/09 00:57:07;;;;;;;11.50;3.10;;;14.70;99.90;;;;;;3587373;40;20094;-77
2021/08/09 00:59:35;;;;;;;9.07;3.33;;;14.70;99.90;;;;;;3586770;40;20048;-77
2021/08/09 01:02:00;;;;;;;6.28;2.85;;;14.70;99.90;;;;;;3577868;40;20326;-80
2021/08/09 01:04:26;;;;;;;6.32;2.88;;;14.70;99.90;;;;;;3586631;40;20044;-79
2021/08/09 01:06:52;;;;;;;10.70;2.45;;;14.70;99.90;;;;;;3579530;40;20041;-76
2021/08/09 01:09:53;;;;;;;9.88;2.67;;;14.70;99.90;;;;;;3567890;40;20048;-80
2021/08/09 01:12:30;;;;;;;11.50;3.20;;;14.70;99.90;;;;;;3581577;40;20028;-81
2021/08/09 01:15:03;;;;;;;12.15;3.22;;;14.70;99.90;;;;;;3576746;40;20151;-76
2021/08/09 01:17:34;;;;;;;10.27;3.45;;;14.70;99.90;;;;;;3577307;40;20045;-80
2021/08/09 01:20:21;;;;;;;9.60;2.95;;;14.70;99.90;;;;;;3577258;40;20048;-81
2021/08/09 01:23:14;;;;;;;7.40;2.65;;;14.70;99.90;;;;;;3577726;40;20036;-79
2021/08/09 01:25:58;;;;;;;8.38;1.83;;;14.70;99.90;;;;;;3580386;40;20087;-80
2021/08/09 01:28:28;;;;;;;8.82;2.72;;;14.70;99.90;;;;;;3586764;40;20659;-79
2021/08/09 01:30:55;;;;;;;10.43;3.30;;;14.60;99.90;;;;;;3577578;40;20415;-77
2021/08/09 01:33:23;;;;;;;16.88;2.53;;;14.60;99.90;;;;;;3586992;40;20368;-76
2021/08/09 01:35:52;;;;;;;16.55;3.20;;;14.60;99.90;;;;;;3577332;40;20047;-77
2021/08/09 01:38:20;;;;;;;12.60;3.15;;;14.60;99.90;;;;;;3586717;40;20052;-79
2021/08/09 01:40:47;;;;;;;10.32;2.80;;;14.60;99.90;;;;;;3577017;40;20036;-78
2021/08/09 01:43:16;;;;;;;12.27;2.25;;;14.60;99.90;;;;;;3577146;40;20122;-78
2021/08/09 01:45:42;;;;;;;11.15;2.55;;;14.60;99.90;;;;;;3586502;40;20060;-77
2021/08/09 01:48:09;;;;;;;13.15;2.60;;;14.60;99.90;;;;;;3577723;40;20051;-79
2021/08/09 01:50:36;;;;;;;13.52;3.00;;;14.50;99.90;;;;;;3586592;40;20052;-81
2021/08/09 01:53:06;;;;;;;9.85;3.17;;;14.50;99.90;;;;;;3577700;40;20130;-78
2021/08/09 01:55:32;;;;;;;13.75;4.22;;;14.50;99.90;;;;;;3586699;40;20070;-77
2021/08/09 01:57:57;;;;;;;17.00;4.35;;;14.50;99.90;;;;;;3587052;40;20056;-82
2021/08/09 02:00:23;;;;;;;9.40;4.28;;;14.50;99.90;;;;;;3569179;40;20032;-82
2021/08/09 02:02:52;;;;;;;12.70;4.10;;;14.50;99.90;;;;;;3586711;40;20033;-77
2021/08/09 02:05:18;;;;;;;9.15;3.63;;;14.50;99.90;;;;;;3585580;40;20047;-82
2021/08/09 02:07:47;;;;;;;12.73;3.33;;;14.50;99.90;;;;;;3568419;40;20726;-82
2021/08/09 02:10:17;;;;;;;13.07;3.60;;;14.50;99.90;;;;;;3586436;40;20283;-79
2021/08/09 02:13:04;;;;;;;8.95;4.22;;;14.50;99.90;;;;;;3586459;40;20140;-78
2021/08/09 02:15:40;;;;;;;11.07;4.00;;;14.50;99.90;;;;;;3586575;40;20048;-80
2021/08/09 02:18:17;;;;;;;20.00;5.63;;;14.50;99.90;;;;;;3577229;40;20036;-80
2021/08/09 02:20:45;;;;;;;9.48;3.75;;;14.50;99.90;;;;;;3586688;40;20040;-80
2021/08/09 02:23:17;;;;;;;14.93;5.35;;;14.50;99.90;;;;;;3586648;40;20579;-79
2021/08/09 02:25:49;;;;;;;12.07;4.93;;;14.50;99.90;;;;;;3585490;40;20246;-81
2021/08/09 02:28:18;;;;;;;13.93;4.68;;;14.50;99.90;;;;;;3586840;40;20445;-80
2021/08/09 02:30:48;;;;;;;16.48;4.40;;;14.50;99.90;;;;;;3586748;40;20072;-80
2021/08/09 02:33:14;;;;;;;12.35;4.15;;;14.50;99.90;;;;;;3586844;40;20072;-81
2021/08/09 02:35:41;;;;;;;13.77;4.63;;;14.50;99.90;;;;;;3586734;40;20056;-82
2021/08/09 02:38:07;;;;;;;9.82;5.03;;;14.50;99.90;;;;;;3583767;40;20120;-80
2021/08/09 02:40:34;;;;;;;15.82;5.60;;;14.50;99.90;;;;;;3558741;40;20057;-83
2021/08/09 02:43:01;;;;;;;18.35;5.07;;;14.40;99.90;;;;;;3580207;40;20051;-83
2021/08/09 02:45:28;;;;;;;14.73;5.18;;;14.40;99.90;;;;;;3577525;40;20044;-79
2021/08/09 02:47:54;;;;;;;15.95;4.55;;;14.40;99.90;;;;;;3586565;40;20044;-81
2021/08/09 02:50:20;;;;;;;24.77;4.30;;;14.40;99.90;;;;;;3577535;40;20353;-80
2021/08/09 02:52:47;;;;;;;11.85;4.32;;;14.40;99.90;;;;;;3576591;40;20052;-80
2021/08/09 02:55:15;;;;;;;13.77;4.53;;;14.40;99.90;;;;;;3586189;40;20137;-79
2021/08/09 02:57:42;;;;;;;13.25;4.28;;;14.40;99.90;;;;;;3586713;40;20040;-82
2021/08/09 03:00:09;;;;;;;20.20;5.63;;;14.40;99.90;;;;;;3586202;40;20047;-79
2021/08/09 03:02:37;;;;;;;11.20;4.57;;;14.40;99.90;;;;;;3586147;40;20040;-84
2021/08/09 03:05:07;;;;;;;14.65;4.38;;;14.40;99.90;;;;;;3567689;40;20158;-84
2021/08/09 03:07:36;;;;;;;9.90;4.18;;;14.40;99.90;;;;;;3575449;40;20060;-83
2021/08/09 03:10:05;;;;;;;13.55;4.07;;;14.40;99.90;;;;;;3606596;22;20044;-79
2021/08/09 03:12:31;;;;;;;9.70;3.63;;;14.40;99.90;;;;;;3586847;40;20048;-81
2021/08/09 03:14:57;;;;;;;13.40;4.15;;;14.40;99.90;;;;;;3579100;40;20231;-78
2021/08/09 03:17:26;;;;;;;14.27;4.57;;;14.40;99.90;;;;;;3588193;40;20173;-81
2021/08/09 03:19:52;;;;;;;9.88;3.45;;;14.40;99.90;;;;;;3570353;40;20051;-80
2021/08/09 03:22:18;;;;;;;11.48;3.70;;;14.40;99.90;;;;;;3568146;40;20041;-83
2021/08/09 03:24:44;;;;;;;14.57;4.10;;;14.40;99.90;;;;;;3563386;40;20060;-82
2021/08/09 03:27:10;;;;;;;9.02;4.03;;;14.40;99.90;;;;;;3587196;40;20041;-82
2021/08/09 03:29:36;;;;;;;10.27;3.78;;;14.40;99.90;;;;;;3577243;40;20044;-81
2021/08/09 03:32:02;;;;;;;16.98;3.97;;;14.40;99.90;;;;;;3577749;40;20068;-84
2021/08/09 03:34:28;;;;;;;12.27;3.70;;;14.40;99.90;;;;;;3586950;40;20343;-81
2021/08/09 03:36:54;;;;;;;15.05;4.38;;;14.40;99.90;;;;;;3577468;40;20048;-83
2021/08/09 03:39:20;;;;;;;14.55;4.15;;;14.40;99.90;;;;;;3577023;40;20319;-81
2021/08/09 03:41:46;;;;;;;14.30;3.38;;;14.40;99.90;;;;;;3586502;40;20099;-84
2021/08/09 03:44:13;;;;;;;16.23;4.90;;;14.40;99.90;;;;;;3587187;40;20055;-80
2021/08/09 03:46:39;;;;;;;17.05;4.32;;;14.40;99.90;;;;;;3586589;40;20130;-79
2021/08/09 03:49:07;;;;;;;13.82;5.20;;;14.40;99.90;;;;;;3578145;40;20060;-79
2021/08/09 03:51:38;;;;;;;11.32;4.15;;;14.40;99.90;;;;;;3566759;40;20040;-80
2021/08/09 03:54:05;;;;;;;10.13;3.03;;;14.40;99.90;;;;;;3575614;40;20047;-78
2021/08/09 03:56:32;;;;;;;11.32;4.00;;;14.40;99.90;;;;;;3575020;40;20045;-78
2021/08/09 03:58:58;;;;;;;12.23;4.32;;;14.40;99.90;;;;;;3576328;40;20043;-80
2021/08/09 04:01:24;;;;;;;10.23;5.35;;;14.40;99.90;;;;;;3570501;40;20048;-81
2021/08/09 04:03:50;;;;;;;11.88;4.55;;;14.50;99.90;;;;;;3575767;40;20118;-83
2021/08/09 04:06:17;;;;;;;14.68;4.78;;;14.50;99.90;;;;;;3585627;40;20332;-80
2021/08/09 04:08:43;;;;;;;12.70;4.18;;;14.50;99.90;;;;;;3577922;40;20290;-82
2021/08/09 04:11:09;;;;;;;21.13;6.22;;;14.50;99.90;;;;;;3587742;40;20342;-85
2021/08/09 04:13:34;;;;;;;14.25;4.53;;;14.50;99.90;;;;;;3587010;40;20260;-79
2021/08/09 04:16:01;;;;;;;11.80;4.90;;;14.50;99.90;;;;;;3587831;40;20047;-83
2021/08/09 04:18:27;;;;;;;15.82;4.43;;;14.50;99.90;;;;;;3587614;40;20314;-80
2021/08/09 04:20:52;;;;;;;16.55;4.85;;;14.50;99.90;;;;;;3580056;40;20117;-82
2021/08/09 04:23:18;;;;;;;17.15;5.32;;;14.50;99.90;;;;;;3587787;40;20040;-81
2021/08/09 04:25:44;;;;;;;12.02;4.18;;;14.50;99.90;;;;;;3579137;40;20041;-81
2021/08/09 04:28:11;;;;;;;19.00;4.95;;;14.50;99.90;;;;;;3578546;40;20051;-83
2021/08/09 04:30:37;;;;;;;15.40;5.03;;;14.50;99.90;;;;;;3587580;40;20052;-86
2021/08/09 04:33:03;;;;;;;17.05;5.18;;;14.50;99.90;;;;;;3587533;40;20048;-83
2021/08/09 04:35:30;;;;;;;13.13;4.35;;;14.50;99.90;;;;;;3578060;40;20588;-80
2021/08/09 04:37:56;;;;;;;12.38;3.92;;;14.50;99.90;;;;;;3587500;40;20133;-83
2021/08/09 04:40:23;;;;;;;18.23;4.47;;;14.50;99.90;;;;;;3587468;40;20044;-81
2021/08/09 04:42:49;;;;;;;19.15;5.28;;;14.50;99.90;;;;;;3586162;40;20052;-80
2021/08/09 04:45:14;;;;;;;12.40;4.45;;;14.50;99.90;;;;;;3584528;40;20082;-80
2021/08/09 04:47:40;;;;;;;12.32;5.15;;;14.50;99.90;;;;;;3585838;40;20064;-79
2021/08/09 04:50:07;;;;;;;14.35;4.00;;;14.60;99.90;;;;;;3587238;40;20048;-80
2021/08/09 04:52:38;;;;;;;16.00;4.15;;;14.60;99.90;;;;;;3584844;40;20043;-81
2021/08/09 04:55:04;;;;;;;14.32;4.53;;;14.60;99.90;;;;;;3587674;40;20082;-80
2021/08/09 04:57:30;;;;;;;13.48;4.28;;;14.50;99.90;;;;;;3587416;40;20633;-82
2021/08/09 04:59:56;;;;;;;12.20;4.63;;;14.60;99.90;;;;;;3583835;40;20045;-80
2021/08/09 05:02:22;;;;;;;13.07;4.10;;;14.60;99.90;;;;;;3587118;40;20055;-80
2021/08/09 05:04:48;;;;;;;17.10;5.60;;;14.60;99.90;;;;;;3582878;40;20037;-78
2021/08/09 05:07:15;;;;;;;25.77;6.03;;;14.60;99.90;;;;;;3584201;40;20137;-81
2021/08/09 05:09:41;;;;;;;16.88;4.78;;;14.60;99.90;;;;;;3586679;40;20040;-84
2021/08/09 05:12:07;;;;;;;16.10;4.25;;;14.60;99.90;;;;;;3587208;40;20147;-83
2021/08/09 05:14:35;;;;;;;12.52;3.92;;;14.60;99.90;;;;;;3585223;40;20044;-80
2021/08/09 05:17:01;;;;;;;17.42;4.70;;;14.60;99.90;;;;;;3586078;40;20235;-79
2021/08/09 05:19:29;;;;;;;11.20;3.75;;;14.60;99.90;;;;;;3579605;40;20048;-80
2021/08/09 05:21:55;;;;;;;19.55;4.65;;;14.60;99.90;;;;;;3586617;40;20246;-79
2021/08/09 05:24:21;;;;;;;16.45;4.10;;;14.60;99.90;;;;;;3586512;40;20045;-79
2021/08/09 05:26:47;;;;;;;8.85;4.57;;;14.60;99.90;;;;;;3586688;40;20057;-80
2021/08/09 05:29:13;;;;;;;14.15;4.03;;;14.60;99.90;;;;;;3585172;40;20059;-80
2021/08/09 05:31:41;;;;;;;13.75;4.40;;;14.60;99.90;;;;;;3586073;40;20366;-80
2021/08/09 05:34:07;;;;;;;9.65;4.28;;;14.60;99.90;;;;;;3585897;40;20052;-78
2021/08/09 05:36:35;;;;;;;15.48;3.88;;;14.60;99.90;;;;;;3586551;40;20036;-77
2021/08/09 05:39:01;;;;;;;13.55;3.40;;;14.60;99.90;;;;;;3586886;40;20036;-79
2021/08/09 05:41:28;;;;;;;19.58;3.80;;;14.60;99.90;;;;;;3586250;40;20028;-77
2021/08/09 05:43:54;;;;;;;14.00;3.42;;;14.60;99.90;;;;;;3586919;40;20068;-78
2021/08/09 05:46:20;;;;;;;17.17;5.32;;;14.60;99.90;;;;;;3586587;40;20048;-80
2021/08/09 05:48:46;;;;;;;18.48;4.30;;;14.70;99.90;;;;;;3583204;40;20231;-78
2021/08/09 05:51:12;;;;;;;11.85;3.25;;;14.70;99.90;;;;;;3584609;40;20028;-79
2021/08/09 05:53:37;;;;;;;15.23;3.83;;;14.70;99.90;;;;;;3584175;40;20041;-77
2021/08/09 05:56:03;;;;;;;12.07;3.75;;;14.70;99.90;;;;;;3585076;40;20060;-79
2021/08/09 05:58:29;;;;;;;18.05;4.18;;;14.70;99.90;;;;;;3586549;40;20150;-79
2021/08/09 06:00:55;;;;;;;13.48;4.53;;;14.70;99.90;;;;;;3572919;40;20072;-79
2021/08/09 06:03:24;;;;;;;16.00;5.40;;;14.80;99.90;;;;;;3586373;40;20465;-78
2021/08/09 06:05:54;;;;;;;11.63;4.05;;;14.80;99.90;;;;;;3586533;40;20517;-79
2021/08/09 06:08:20;;;;;;;16.00;5.15;;;14.80;99.90;;;;;;3586276;40;20327;-79
2021/08/09 06:10:46;;;;;;;18.20;4.40;;;14.80;99.90;;;;;;3586196;40;20044;-79
2021/08/09 06:13:12;;;;;;;20.42;5.35;;;14.80;99.90;;;;;;3586688;40;20047;-78
2021/08/09 06:15:38;;;;;;;14.45;4.40;;;14.80;99.90;;;;;;3585954;40;20145;-80
2021/08/09 06:18:04;;;;;;;12.70;4.43;;;14.90;99.90;;;;;;3586504;40;20055;-83
2021/08/09 06:20:30;;;;;;;8.52;3.97;;;14.90;99.90;;;;;;3586074;40;20032;-78
2021/08/09 06:22:57;;;;;;;15.70;3.88;;;14.90;99.90;;;;;;3586083;40;20028;-77
2021/08/09 06:25:23;;;;;;;14.90;5.00;;;14.90;99.90;;;;;;3586254;40;20117;-79
2021/08/09 06:27:50;;;;;;;18.73;4.63;;;14.90;99.90;;;;;;3582905;40;20708;-77
2021/08/09 06:30:17;;;;;;;13.32;4.15;;;15.00;99.90;;;;;;3586464;40;20052;-74
2021/08/09 06:32:43;;;;;;;17.42;4.00;;;15.00;99.90;;;;;;3585708;40;20040;-81
2021/08/09 06:35:09;;;;;;;11.95;3.90;;;15.00;99.90;;;;;;3581256;40;20127;-81
2021/08/09 06:37:35;;;;;;;12.73;4.43;;;15.00;99.90;;;;;;3582802;40;20087;-78
2021/08/09 06:40:03;;;;;;;15.75;5.28;;;15.10;99.90;;;;;;3586292;40;20464;-80
2021/08/09 06:42:29;;;;;;;8.90;3.58;;;15.10;99.90;;;;;;3585992;40;20043;-76
2021/08/09 06:44:54;;;;;;;9.18;3.60;;;15.10;99.90;;;;;;3586049;40;20337;-80
2021/08/09 06:47:20;;;;;;;16.33;4.95;;;15.20;99.90;;;;;;3586416;40;20090;-79
2021/08/09 06:49:46;;;;;;;20.98;4.70;;;15.20;99.90;;;;;;3585824;40;20047;-78
2021/08/09 06:52:12;;;;;;;19.83;3.95;;;15.30;99.90;;;;;;3585321;40;20044;-80
2021/08/09 06:54:38;;;;;;;16.33;3.78;;;15.30;99.90;;;;;;3585726;40;20239;-77
2021/08/09 06:57:04;;;;;;;14.75;4.22;;;15.40;99.90;;;;;;3586121;40;20051;-79
2021/08/09 06:59:30;;;;;;;15.30;4.15;;;15.40;99.90;;;;;;3586020;40;20432;-80
2021/08/09 07:01:56;;;;;;;15.25;4.50;;;15.40;99.90;;;;;;3585842;40;20044;-81
2021/08/09 07:04:21;;;;;;;11.15;4.13;;;15.40;99.90;;;;;;3586170;40;20121;-77
2021/08/09 07:06:49;;;;;;;11.75;4.28;;;15.40;99.90;;;;;;3586025;40;20072;-76
2021/08/09 07:09:15;;;;;;;15.43;4.05;;;15.50;99.90;;;;;;3586419;40;20493;-79
2021/08/09 07:11:41;;;;;;;15.18;3.40;;;15.50;99.90;;;;;;3585602;40;20043;-77
2021/08/09 07:14:07;;;;;;;11.00;3.70;;;15.50;99.90;;;;;;3586127;40;20051;-81
2021/08/09 07:16:33;;;;;;;14.23;5.28;;;15.50;99.90;;;;;;3585920;40;20096;-83
2021/08/09 07:18:58;;;;;;;10.95;4.00;;;15.50;99.90;;;;;;3585841;40;20047;-80
2021/08/09 07:21:24;;;;;;;12.15;4.10;;;15.60;99.90;;;;;;3586179;40;20044;-79
2021/08/09 07:23:50;;;;;;;11.00;3.95;;;15.60;99.90;;;;;;3582906;40;20040;-77
2021/08/09 07:26:16;;;;;;;18.35;4.82;;;15.60;99.90;;;;;;3586357;40;20043;-79
2021/08/09 07:28:42;;;;;;;11.73;3.83;;;15.70;99.90;;;;;;3586348;40;20044;-81
2021/08/09 07:31:08;;;;;;;11.50;3.55;;;15.80;99.90;;;;;;3582717;40;20059;-77
2021/08/09 07:33:34;;;;;;;15.43;4.35;;;15.80;99.90;;;;;;3585843;40;20323;-77
2021/08/09 07:36:01;;;;;;;15.88;4.22;;;15.90;99.90;;;;;;3586483;40;20051;-79
2021/08/09 07:38:27;;;;;;;13.35;4.13;;;15.90;99.90;;;;;;3586526;40;20036;-80
2021/08/09 07:40:53;;;;;;;16.60;4.72;;;16.00;99.90;;;;;;3587100;40;20040;-75
2021/08/09 07:43:19;;;;;;;16.63;4.35;;;16.10;99.90;;;;;;3587580;40;20040;-86
2021/08/09 07:45:45;;;;;;;17.83;4.53;;;16.20;99.90;;;;;;3585897;40;20508;-84
2021/08/09 07:48:10;;;;;;;11.70;3.85;;;16.30;99.90;;;;;;3587401;40;20040;-77
2021/08/09 07:50:39;;;;;;;14.32;3.75;;;16.40;99.90;;;;;;3586854;40;20044;-75
2021/08/09 07:53:05;;;;;;;14.20;4.13;;;16.50;99.90;;;;;;3587052;40;20094;-77
2021/08/09 07:55:30;;;;;;;14.25;4.70;;;16.60;99.90;;;;;;3587057;40;20369;-77
2021/08/09 07:57:56;;;;;;;11.93;3.83;;;16.70;99.90;;;;;;3587202;40;20048;-77
2021/08/09 08:00:22;;;;;;;11.30;4.63;;;16.80;99.90;;;;;;3582875;40;20331;-77
2021/08/09 08:02:50;;;;;;;14.57;3.72;;;16.90;99.90;;;;;;3584778;40;20036;-78
2021/08/09 08:05:15;;;;;;;10.00;3.20;;;17.00;99.90;;;;;;3587150;40;20694;-77
2021/08/09 08:07:41;;;;;;;13.52;4.30;;;17.10;99.90;;;;;;3586783;40;20075;-79
2021/08/09 08:10:08;;;;;;;13.40;3.63;;;17.20;99.90;;;;;;3587180;40;20072;-82
2021/08/09 08:12:33;;;;;;;12.85;4.30;;;17.20;99.90;;;;;;3587095;40;20036;-78
2021/08/09 08:14:59;;;;;;;10.73;3.80;;;17.30;99.90;;;;;;3587121;40;20036;-78
2021/08/09 08:17:25;;;;;;;15.15;4.50;;;17.30;99.90;;;;;;3587262;40;20129;-80
2021/08/09 08:19:51;;;;;;;17.95;3.75;;;17.30;99.90;;;;;;3583100;40;20121;-79
2021/08/09 08:22:17;;;;;;;17.27;3.90;;;17.30;99.90;;;;;;3587269;40;20125;-75
2021/08/09 08:24:43;;;;;;;18.80;3.85;;;17.20;99.90;;;;;;3586766;40;20044;-77
2021/08/09 08:27:09;;;;;;;15.25;3.55;;;17.30;99.90;;;;;;3587090;40;20354;-78
2021/08/09 08:29:35;;;;;;;17.48;5.32;;;17.30;99.90;;;;;;3586966;40;20303;-76
2021/08/09 08:32:01;;;;;;;12.90;3.47;;;17.30;99.90;;;;;;3587012;40;20056;-79
2021/08/09 08:34:27;;;;;;;10.98;3.38;;;17.30;99.90;;;;;;3586922;40;20052;-78
2021/08/09 08:36:53;;;;;;;18.73;4.60;;;17.40;99.90;;;;;;3586914;40;20044;-77
2021/08/09 08:39:18;;;;;;;14.60;3.80;;;17.40;99.90;;;;;;3587343;40;20117;-78
2021/08/09 08:41:45;;;;;;;10.52;3.72;;;17.50;99.90;;;;;;3584397;40;20216;-78
2021/08/09 08:44:20;;;;;;;11.10;3.58;;;17.50;99.90;;;;;;3585985;40;20051;-78
2021/08/09 08:46:46;;;;;;;17.35;4.05;;;17.50;99.90;;;;;;3586646;40;20043;-82
2021/08/09 08:49:16;;;;;;;13.73;3.75;;;17.60;99.90;;;;;;3582294;40;20043;-83
2021/08/09 08:51:44;;;;;;;8.77;3.03;;;17.60;99.90;;;;;;3586531;40;20262;-77
2021/08/09 08:54:12;;;;;;;15.27;4.88;;;17.70;99.90;;;;;;3586919;40;20331;-79
2021/08/09 08:56:42;;;;;;;15.98;5.00;;;17.70;99.90;;;;;;3586582;40;20044;-79
2021/08/09 08:59:11;;;;;;;14.15;4.00;;;17.70;99.90;;;;;;3587059;40;20111;-80
2021/08/09 09:01:43;;;;;;;14.80;3.47;;;17.70;99.90;;;;;;3586714;40;20051;-78
2021/08/09 09:04:27;;;;;;;14.05;4.15;;;17.70;99.90;;;;;;3586850;40;20051;-76
2021/08/09 09:06:59;;;;;;;11.77;4.03;;;17.80;99.90;;;;;;3578090;40;20295;-78
2021/08/09 09:09:25;;;;;;;9.82;4.10;;;17.80;99.90;;;;;;3583227;40;20055;-75
2021/08/09 09:11:51;;;;;;;12.63;3.60;;;17.80;99.90;;;;;;3586390;40;20040;-77
2021/08/09 09:14:25;;;;;;;14.32;3.38;;;17.90;99.90;;;;;;3581593;40;20267;-76
2021/08/09 09:16:51;;;;;;;15.90;4.00;;;18.00;99.90;;;;;;3586614;40;20040;-76
2021/08/09 09:19:39;;;;;;;11.40;4.00;;;18.00;99.90;;;;;;3572173;40;20156;-76
2021/08/09 09:22:08;;;;;;;11.02;3.95;;;18.10;99.90;;;;;;3586673;40;20052;-78
2021/08/09 09:24:36;;;;;;;15.65;4.82;;;18.20;99.90;;;;;;3586340;40;20121;-79
2021/08/09 09:27:07;;;;;;;12.35;5.18;;;18.40;99.90;;;;;;3581969;40;20048;-75
2021/08/09 09:29:36;;;;;;;13.10;4.43;;;18.60;99.90;;;;;;3586252;40;20059;-75
2021/08/09 09:32:19;;;;;;;8.48;3.28;;;18.60;99.90;;;;;;3586879;40;20130;-78
2021/08/09 09:34:53;;;;;;;11.27;2.95;;;18.60;99.90;;;;;;3586267;40;20607;-76
2021/08/09 09:37:31;;;;;;;13.98;3.42;;;18.60;99.90;;;;;;3586463;40;20040;-77
2021/08/09 09:40:05;;;;;;;12.43;4.28;;;18.70;99.90;;;;;;3586508;40;20226;-77
2021/08/09 09:42:36;;;;;;;18.83;3.35;;;18.70;99.90;;;;;;3586338;40;20072;-79
2021/08/09 09:45:20;;;;;;;10.13;3.58;;;18.80;99.90;;;;;;3586731;40;20052;-75
2021/08/09 09:47:59;;;;;;;11.30;3.38;;;18.90;99.90;;;;;;3583442;40;20055;-78
2021/08/09 09:50:25;;;;;;;9.50;2.97;;;18.90;99.90;;;;;;3584611;40;20075;-77
2021/08/09 09:52:50;;;;;;;14.98;2.80;;;19.00;99.90;;;;;;3583942;40;20042;-75
2021/08/09 09:55:17;;;;;;;9.20;2.33;;;19.00;99.90;;;;;;3586522;40;20216;-78
2021/08/09 09:57:44;;;;;;;12.00;3.97;;;19.10;99.90;;;;;;3586287;40;20044;-76
2021/08/09 10:00:17;;;;;;;8.88;2.20;;;19.10;99.70;;;;;;3586243;40;20547;-77
2021/08/09 10:02:47;;;;;;;21.48;2.70;;;19.20;99.80;;;;;;3579636;40;20040;-81
2021/08/09 10:05:15;;;;;;;16.38;2.78;;;19.20;99.50;;;;;;3586492;40;20346;-77
2021/08/09 10:07:45;;;;;;;10.20;2.40;;;19.20;99.60;;;;;;3585878;40;20332;-74
2021/08/09 10:10:10;;;;;;;13.77;3.28;;;19.30;99.80;;;;;;3586140;40;20128;-76
2021/08/09 10:12:38;;;;;;;12.27;2.95;;;19.40;99.50;;;;;;3586243;40;20037;-76
2021/08/09 10:15:05;;;;;;;11.32;2.38;;;19.50;98.60;;;;;;3586281;40;20032;-77
2021/08/09 10:17:33;;;;;;;11.55;2.78;;;19.50;99.00;;;;;;3586370;40;20323;-77
2021/08/09 10:20:03;;;;;;;7.07;2.00;;;19.60;99.10;;;;;;3584203;40;20096;-78
2021/08/09 10:22:29;;;;;;;9.77;3.00;;;19.70;99.00;;;;;;3586255;40;20059;-76
2021/08/09 10:24:56;;;;;;;6.95;1.73;;;19.80;99.00;;;;;;3583162;40;20053;-74
2021/08/09 10:27:47;;;;;;;6.60;1.58;;;19.90;98.30;;;;;;3586203;40;20040;-78
2021/08/09 10:30:17;;;;;;;11.65;2.35;;;20.00;98.70;;;;;;3583905;40;20107;-76
2021/08/09 10:32:50;;;;;;;7.47;2.10;;;20.10;98.00;;;;;;3586022;40;20044;-78
2021/08/09 10:35:43;;;;;;;10.95;1.42;;;20.20;97.70;;;;;;3583216;40;20040;-77
2021/08/09 10:38:14;;;;;;;6.28;1.27;;;20.30;94.50;;;;;;3586427;40;20043;-76
2021/08/09 10:40:41;;;;;;;9.40;1.75;;;20.40;97.30;;;;;;3585880;40;20045;-77
2021/08/09 10:43:07;;;;;;;6.45;1.30;;;20.50;97.60;;;;;;3582646;40;20047;-77
2021/08/09 10:45:44;;;;;;;7.45;1.38;;;20.60;97.40;;;;;;3586248;40;20044;-79
2021/08/09 10:48:11;;;;;;;7.55;0.85;;;20.60;96.80;;;;;;3583375;40;20044;-79
2021/08/09 10:50:41;;;;;;;10.57;1.40;;;20.60;97.20;;;;;;3586251;40;20045;-81
2021/08/09 10:53:25;;;;;;;6.43;0.80;;;20.70;97.40;;;;;;3586272;40;20242;-73
2021/08/09 10:55:55;;;;;;;4.65;1.02;;;20.70;95.30;;;;;;3582866;40;20049;-76
2021/08/09 10:58:43;;;;;;;3.75;0.73;;;20.80;96.80;;;;;;3585909;40;20428;-80
2021/08/09 11:01:10;;;;;;;2.80;0.45;;;20.90;95.80;;;;;;3586238;40;20051;-79
2021/08/09 11:04:04;;;;;;;6.97;1.27;;;21.10;95.10;;;;;;3585883;40;20055;-79
2021/08/09 11:06:51;;;;;;;4.95;0.77;;;21.20;95.40;;;;;;3583665;40;20044;-84
2021/08/09 11:12:19;;;;;;;2.03;0.52;;;21.30;93.40;;;;;;3585946;40;20032;-77
2021/08/09 11:15:00;;;;;;;4.80;0.88;;;21.40;94.20;;;;;;3582351;40;20036;-73
2021/08/09 11:17:31;;;;;;;2.63;0.45;;;21.50;93.30;;;;;;3586059;40;20072;-79
2021/08/09 11:20:16;;;;;;;3.58;0.85;;;21.50;95.20;;;;;;3583038;40;20040;-79
2021/08/09 11:22:44;;;;;;;2.35;0.40;;;21.50;94.70;;;;;;3585197;40;20317;-79
2021/08/09 11:25:32;;;;;;;4.57;0.50;;;21.50;95.00;;;;;;3586053;40;20336;-78
2021/08/09 11:27:57;;;;;;;1.50;0.40;;;21.40;93.20;;;;;;3584798;40;20033;-76
2021/08/09 11:30:33;;;;;;;3.58;0.80;;;21.30;95.10;;;;;;3586219;40;20044;-77
2021/08/09 11:32:59;;;;;;;4.30;0.50;;;21.40;94.50;;;;;;3586359;40;21776;-78
2021/08/09 11:35:25;;;;;;;3.53;0.30;;;21.40;95.00;;;;;;3586023;40;20037;-76
2021/08/09 11:38:01;;;;;;;4.00;0.88;;;21.40;94.40;;;;;;3585871;40;20463;-79
2021/08/09 11:40:38;;;;;;;2.65;0.60;;;21.30;93.50;;;;;;3581120;40;20047;-78
2021/08/09 11:43:04;;;;;;;1.42;0.50;;;21.20;92.30;;;;;;3586202;40;20041;-76
2021/08/09 11:45:30;;;;;;;3.03;0.55;;;21.10;94.40;;;;;;3574098;40;20040;-82
2021/08/09 11:47:56;;;;;;;3.60;0.90;;;20.90;94.40;;;;;;3585660;40;20039;-78
2021/08/09 11:50:23;;;;;;;4.10;0.20;;;20.80;94.10;;;;;;3585890;40;20104;-78
2021/08/09 11:52:50;;;;;;;2.20;0.30;;;20.60;93.50;;;;;;3585715;40;20037;-77
2021/08/09 11:55:22;;;;;;;3.35;1.02;;;20.30;93.80;;;;;;3584537;40;20342;-76
2021/08/09 11:57:49;;;;;;;3.33;0.40;;;20.10;94.80;;;;;;3585603;40;20235;-76
2021/08/09 12:00:16;;;;;;;2.22;0.45;;;19.80;95.30;;;;;;3585532;40;20037;-75
2021/08/09 12:03:08;;;;;;;2.35;0.40;;;19.50;95.60;;;;;;3585282;40;20036;-79
2021/08/09 12:05:34;;;;;;;2.90;0.50;;;19.30;95.80;;;;;;3583284;40;20081;-79
2021/08/09 12:08:04;;;;;;;1.98;0.30;;;19.20;96.00;;;;;;3585960;40;20129;-80
2021/08/09 12:10:30;;;;;;;4.18;0.45;;;19.20;95.90;;;;;;3585400;40;20033;-76
2021/08/09 12:12:56;;;;;;;1.73;0.40;;;19.10;96.10;;;;;;3585655;40;20040;-76
2021/08/09 12:15:23;;;;;;;2.72;0.40;;;19.10;95.90;;;;;;3585900;40;20042;-81
2021/08/09 12:18:11;;;;;;;2.88;0.30;;;19.10;96.10;;;;;;3584012;40;20044;-79
2021/08/09 12:20:37;;;;;;;2.55;0.35;;;19.10;96.10;;;;;;3585607;40;20056;-82
2021/08/09 12:23:21;;;;;;;4.40;0.60;;;19.10;96.20;;;;;;3585596;40;20048;-76
2021/08/09 12:25:47;;;;;;;2.22;0.55;;;19.20;96.30;;;;;;3585612;40;20199;-80
2021/08/09 12:28:13;;;;;;;7.20;1.02;;;19.20;96.30;;;;;;3585419;40;20051;-78
2021/08/09 12:30:56;;;;;;;1.27;0.50;;;19.30;96.30;;;;;;3586620;40;20315;-81
2021/08/09 12:33:23;;;;;;;3.25;0.55;;;19.40;96.10;;;;;;3587102;40;20071;-77
2021/08/09 12:35:49;;;;;;;2.47;0.32;;;19.40;96.40;;;;;;3586921;40;20345;-79
2021/08/09 12:38:15;;;;;;;3.00;0.40;;;19.50;96.30;;;;;;3583737;40;20041;-78
2021/08/09 12:40:42;;;;;;;3.45;0.40;;;19.70;96.40;;;;;;3583657;40;20085;-76
2021/08/09 12:43:11;;;;;;;2.95;0.32;;;19.80;96.30;;;;;;3587005;40;20076;-81
2021/08/09 12:45:38;;;;;;;2.08;0.73;;;19.90;96.20;;;;;;3586583;40;20047;-77
2021/08/09 12:48:04;;;;;;;3.10;0.40;;;20.00;96.50;;;;;;3586752;40;20260;-76
2021/08/09 12:50:31;;;;;;;2.28;0.30;;;20.10;96.20;;;;;;3586984;40;20424;-78